Time;durP1;ratioP1;P1;durP2;ratioP2;P2;SDS_P1;SDS_P2;PMS_P1;PMS_P2;Temp;Humidity;BMP_temperature;BMP_pressure;BME280_temperature;BME280_humidity;BME280_pressure;Samples;Min_cycle;Max_cycle;Signal;HPM_P1;HPM_P2
2023/10/13 00:00:30;;;;;;;5.00;4.50;;;14.30;99.90;;;;;;5092420;28;20171;-77
2023/10/13 00:03:02;;;;;;;4.67;4.20;;;14.20;99.90;;;;;;5075583;28;20178;-78
2023/10/13 00:05:31;;;;;;;7.57;4.97;;;14.20;99.90;;;;;;5097314;28;20168;-79
2023/10/13 00:08:02;;;;;;;9.77;5.13;;;14.20;99.90;;;;;;5095826;28;20178;-79
2023/10/13 00:10:28;;;;;;;4.73;3.80;;;14.20;99.90;;;;;;5074868;28;20238;-77
2023/10/13 00:13:05;;;;;;;10.80;4.40;;;14.20;99.90;;;;;;5093255;28;20238;-78
2023/10/13 00:15:38;;;;;;;6.60;4.30;;;14.20;99.90;;;;;;5092374;28;20233;-77
2023/10/13 00:18:12;;;;;;;7.07;4.33;;;14.20;99.90;;;;;;5092873;28;20183;-78
2023/10/13 00:20:47;;;;;;;5.23;4.47;;;14.20;99.90;;;;;;5092093;28;20684;-77
2023/10/13 00:23:14;;;;;;;5.53;3.90;;;14.20;99.90;;;;;;5093494;28;20253;-78
2023/10/13 00:25:43;;;;;;;7.73;4.30;;;14.10;99.90;;;;;;5100412;28;20303;-78
2023/10/13 00:28:09;;;;;;;6.93;4.00;;;14.10;99.90;;;;;;5095326;28;20183;-78
2023/10/13 00:30:36;;;;;;;9.97;4.37;;;14.10;99.90;;;;;;5093156;28;20185;-77
2023/10/13 00:33:04;;;;;;;6.17;4.00;;;14.00;99.90;;;;;;5092539;28;20249;-77
2023/10/13 00:35:37;;;;;;;4.70;4.00;;;14.10;99.90;;;;;;5073869;28;20179;-78
2023/10/13 00:38:16;;;;;;;7.13;4.67;;;14.00;99.90;;;;;;5094717;28;20529;-79
2023/10/13 00:40:52;;;;;;;8.77;4.77;;;14.00;99.90;;;;;;5095719;28;20154;-78
2023/10/13 00:45:57;;;;;;;7.10;4.13;;;14.00;99.90;;;;;;5096335;28;20178;-78
2023/10/13 00:48:32;;;;;;;7.83;6.23;;;14.00;99.90;;;;;;5101014;28;20166;-78
2023/10/13 00:51:03;;;;;;;4.70;4.20;;;14.00;99.90;;;;;;5089734;28;20181;-79
2023/10/13 00:53:44;;;;;;;4.90;3.90;;;13.90;99.90;;;;;;5099173;28;20219;-78
2023/10/13 00:56:19;;;;;;;5.97;3.93;;;13.90;99.90;;;;;;5096535;28;20173;-78
2023/10/13 00:58:52;;;;;;;7.00;4.33;;;13.80;99.90;;;;;;5095329;28;20158;-79
2023/10/13 01:01:21;;;;;;;5.23;4.03;;;13.80;99.90;;;;;;5099727;28;20505;-79
2023/10/13 01:03:49;;;;;;;7.33;4.20;;;13.80;99.90;;;;;;5110062;28;20178;-76
2023/10/13 01:06:19;;;;;;;4.27;3.80;;;13.80;99.90;;;;;;5115940;28;20189;-78
2023/10/13 01:08:50;;;;;;;4.47;4.07;;;13.80;99.90;;;;;;5101581;28;20178;-78
2023/10/13 01:11:18;;;;;;;7.00;4.20;;;13.70;99.90;;;;;;5087675;28;20166;-78
2023/10/13 01:13:44;;;;;;;5.93;4.03;;;13.70;99.90;;;;;;5099166;28;20170;-78
2023/10/13 01:16:10;;;;;;;7.50;4.90;;;13.70;99.90;;;;;;5095940;28;20189;-79
2023/10/13 01:18:47;;;;;;;9.60;4.47;;;13.70;99.90;;;;;;5094931;28;20250;-78
2023/10/13 01:21:15;;;;;;;7.80;4.40;;;13.70;99.90;;;;;;5095094;28;20189;-77
2023/10/13 01:23:42;;;;;;;5.67;4.17;;;13.70;99.90;;;;;;5094957;28;20169;-77
2023/10/13 01:26:09;;;;;;;4.93;4.37;;;13.70;99.90;;;;;;5095142;28;20251;-78
2023/10/13 01:28:44;;;;;;;6.93;4.40;;;13.60;99.90;;;;;;5094923;28;20254;-76
2023/10/13 01:31:16;;;;;;;6.53;4.97;;;13.60;99.90;;;;;;5076484;28;20182;-78
2023/10/13 01:33:42;;;;;;;9.33;4.80;;;13.60;99.90;;;;;;5094853;28;20194;-78
2023/10/13 01:36:07;;;;;;;7.87;4.97;;;13.60;99.90;;;;;;5095083;28;20215;-77
2023/10/13 01:38:33;;;;;;;9.47;5.40;;;13.60;99.90;;;;;;5095289;28;20175;-76
2023/10/13 01:40:59;;;;;;;7.80;5.10;;;13.60;99.90;;;;;;5095107;28;20650;-77
2023/10/13 01:43:25;;;;;;;7.70;5.50;;;13.60;99.90;;;;;;5094692;28;20174;-77
2023/10/13 01:45:50;;;;;;;7.87;5.77;;;13.60;99.90;;;;;;5094620;28;20638;-79
2023/10/13 01:48:18;;;;;;;5.73;4.67;;;13.60;99.90;;;;;;5094290;28;20178;-76
2023/10/13 01:50:55;;;;;;;9.97;5.47;;;13.60;99.90;;;;;;5095176;28;20691;-78
2023/10/13 01:53:22;;;;;;;9.87;5.50;;;13.60;99.90;;;;;;5094241;28;20555;-77
2023/10/13 01:55:50;;;;;;;9.27;5.23;;;13.60;99.90;;;;;;5094283;28;20672;-78
2023/10/13 01:58:16;;;;;;;9.23;5.43;;;13.60;99.90;;;;;;5096558;28;20594;-79
2023/10/13 02:00:47;;;;;;;8.67;5.03;;;13.50;99.90;;;;;;5096231;28;20181;-78
2023/10/13 02:03:16;;;;;;;8.23;5.53;;;13.50;99.90;;;;;;5103394;28;20175;-77
2023/10/13 02:05:47;;;;;;;7.63;5.60;;;13.50;99.90;;;;;;5100840;28;20634;-77
2023/10/13 02:08:18;;;;;;;8.20;5.20;;;13.50;99.90;;;;;;5094934;28;20560;-77
2023/10/13 02:10:46;;;;;;;6.17;5.53;;;13.50;99.90;;;;;;5094172;28;20165;-78
2023/10/13 02:13:17;;;;;;;9.23;5.53;;;13.40;99.90;;;;;;5094744;28;20202;-77
2023/10/13 02:15:44;;;;;;;12.27;5.80;;;13.40;99.90;;;;;;5094520;28;20622;-78
2023/10/13 02:18:20;;;;;;;9.33;5.43;;;13.40;99.90;;;;;;5094873;28;20578;-76
2023/10/13 02:20:54;;;;;;;8.53;5.60;;;13.40;99.90;;;;;;5075490;28;20179;-78
2023/10/13 02:23:20;;;;;;;7.23;5.07;;;13.40;99.90;;;;;;5074581;28;20198;-79
2023/10/13 02:25:46;;;;;;;6.80;5.30;;;13.30;99.90;;;;;;5079618;28;20223;-75
2023/10/13 02:28:21;;;;;;;6.37;5.03;;;13.30;99.90;;;;;;5079191;28;20551;-77
2023/10/13 02:30:50;;;;;;;7.27;5.43;;;13.30;99.90;;;;;;5077012;28;20181;-77
2023/10/13 02:33:29;;;;;;;9.63;4.90;;;13.30;99.90;;;;;;5092789;28;20208;-77
2023/10/13 02:35:59;;;;;;;7.00;5.13;;;13.30;99.90;;;;;;5079164;28;20183;-78
2023/10/13 02:38:27;;;;;;;6.30;5.67;;;13.30;99.90;;;;;;5073989;28;20224;-79
2023/10/13 02:40:54;;;;;;;6.10;5.00;;;13.20;99.90;;;;;;5073580;28;20186;-77
2023/10/13 02:43:23;;;;;;;6.43;5.50;;;13.20;99.90;;;;;;5073331;28;20172;-77
2023/10/13 02:45:58;;;;;;;6.70;5.30;;;13.20;99.90;;;;;;5073485;28;20179;-78
2023/10/13 02:48:25;;;;;;;5.47;4.97;;;13.20;99.90;;;;;;5073640;28;20194;-77
2023/10/13 02:50:57;;;;;;;8.47;5.10;;;13.20;99.90;;;;;;5072274;28;20267;-79
2023/10/13 02:53:23;;;;;;;5.47;4.97;;;13.20;99.90;;;;;;5071757;28;20299;-78
2023/10/13 02:55:53;;;;;;;5.73;5.10;;;13.10;99.90;;;;;;5073234;28;20233;-75
2023/10/13 02:58:18;;;;;;;7.53;5.33;;;13.10;99.90;;;;;;5073699;28;20186;-77
2023/10/13 03:00:46;;;;;;;10.00;5.20;;;13.10;99.90;;;;;;5072304;28;20175;-77
2023/10/13 03:03:14;;;;;;;10.07;5.40;;;13.10;99.90;;;;;;5073389;28;20163;-78
2023/10/13 03:05:42;;;;;;;7.67;5.00;;;13.10;99.90;;;;;;5073482;28;20178;-77
2023/10/13 03:08:10;;;;;;;6.47;5.23;;;13.10;99.90;;;;;;5072945;28;20171;-77
2023/10/13 03:10:40;;;;;;;9.77;5.97;;;13.10;99.90;;;;;;5072210;28;20253;-77
2023/10/13 03:13:09;;;;;;;5.77;5.13;;;13.10;99.90;;;;;;5072681;28;20293;-76
2023/10/13 03:15:35;;;;;;;7.23;5.37;;;13.10;99.90;;;;;;5072898;28;20582;-77
2023/10/13 03:18:02;;;;;;;5.53;4.93;;;13.10;99.90;;;;;;5072675;28;20639;-77
2023/10/13 03:20:34;;;;;;;8.43;5.13;;;13.10;99.90;;;;;;5090938;28;20253;-78
2023/10/13 03:23:00;;;;;;;7.93;5.20;;;13.10;99.90;;;;;;5093873;28;20178;-76
2023/10/13 03:25:29;;;;;;;6.97;5.10;;;13.10;99.90;;;;;;5092518;28;20182;-78
2023/10/13 03:30:35;;;;;;;11.77;5.60;;;13.00;99.90;;;;;;5093960;28;20535;-78
2023/10/13 03:33:06;;;;;;;7.50;5.20;;;13.00;99.90;;;;;;5105010;28;20185;-78
2023/10/13 03:35:42;;;;;;;5.73;5.03;;;13.00;99.90;;;;;;5113507;28;20179;-78
2023/10/13 03:38:16;;;;;;;6.20;5.57;;;13.00;99.90;;;;;;5103983;28;20204;-77
2023/10/13 03:40:48;;;;;;;5.97;5.23;;;13.00;99.90;;;;;;5093097;28;20641;-77
2023/10/13 03:43:16;;;;;;;8.67;5.20;;;13.10;99.90;;;;;;5093161;28;20614;-77
2023/10/13 03:45:48;;;;;;;6.07;5.30;;;13.10;99.90;;;;;;5093111;28;20189;-76
2023/10/13 03:51:10;;;;;;;8.07;5.10;;;13.00;99.90;;;;;;5091844;28;20202;-79
2023/10/13 03:53:52;;;;;;;8.20;5.90;;;13.00;99.90;;;;;;5079783;28;20196;-78
2023/10/13 03:56:28;;;;;;;8.80;6.10;;;13.00;99.90;;;;;;5076829;28;20159;-78
2023/10/13 03:59:05;;;;;;;7.33;5.83;;;13.00;99.90;;;;;;5080266;28;20222;-76
2023/10/13 04:01:31;;;;;;;7.83;6.03;;;13.00;99.90;;;;;;5086219;28;20217;-79
2023/10/13 04:04:04;;;;;;;9.67;5.67;;;13.00;99.90;;;;;;5059710;28;20203;-76
2023/10/13 04:17:28;;;;;;;9.57;5.70;;;12.90;99.90;;;;;;5075635;28;20167;-77
2023/10/13 04:28:50;;;;;;;9.17;5.70;;;12.90;99.90;;;;;;5074130;28;20173;-78
2023/10/13 04:36:14;;;;;;;6.03;5.30;;;12.80;99.90;;;;;;5075183;28;20694;-78
2023/10/13 04:41:41;;;;;;;5.70;5.20;;;12.80;99.90;;;;;;5075790;28;20170;-79
2023/10/13 04:47:17;;;;;;;9.43;5.40;;;12.90;99.90;;;;;;5096804;28;20607;-78
2023/10/13 06:28:41;;;;;;;7.57;5.70;;;13.60;99.90;;;;;;5013677;28;20196;-78
2023/10/13 06:31:08;;;;;;;7.80;5.53;;;13.60;99.90;;;;;;4990383;28;20262;-77
2023/10/13 06:33:34;;;;;;;8.23;5.93;;;13.70;99.90;;;;;;4993582;28;20217;-76
2023/10/13 06:36:02;;;;;;;11.83;6.13;;;13.80;99.90;;;;;;4992965;28;20184;-78
2023/10/13 06:38:35;;;;;;;9.97;6.00;;;13.80;99.90;;;;;;4992382;28;20200;-77
2023/10/13 06:41:05;;;;;;;9.37;5.83;;;13.90;99.90;;;;;;4994008;28;20180;-79
2023/10/13 06:43:39;;;;;;;9.43;6.10;;;13.90;99.90;;;;;;5001393;28;20228;-78
2023/10/13 06:46:07;;;;;;;11.07;6.17;;;14.00;99.90;;;;;;5011888;28;20329;-78
2023/10/13 06:48:34;;;;;;;8.43;6.13;;;14.10;99.90;;;;;;5000384;28;20208;-78
2023/10/13 06:54:00;;;;;;;9.63;5.73;;;14.20;99.90;;;;;;4972239;28;20615;-77
2023/10/13 06:56:29;;;;;;;11.03;6.00;;;14.20;99.90;;;;;;4972327;28;20225;-77
2023/10/13 06:58:59;;;;;;;8.10;5.97;;;14.20;99.90;;;;;;4972387;28;20646;-77
2023/10/13 07:01:28;;;;;;;9.10;6.40;;;14.20;99.90;;;;;;4972224;28;20194;-78
2023/10/13 07:03:55;;;;;;;9.10;5.73;;;14.20;99.90;;;;;;4984205;28;20548;-79
2023/10/13 07:06:21;;;;;;;8.73;5.90;;;14.20;99.90;;;;;;5011139;28;20576;-76
2023/10/13 07:08:51;;;;;;;11.20;6.37;;;14.20;99.90;;;;;;5010411;28;20205;-78
2023/10/13 07:11:33;;;;;;;8.37;6.23;;;14.20;99.90;;;;;;5012284;28;20199;-77
2023/10/13 07:14:13;;;;;;;6.60;5.90;;;14.30;99.90;;;;;;5011847;28;20230;-78
2023/10/13 07:17:05;;;;;;;12.00;6.37;;;14.30;99.90;;;;;;5013702;28;20177;-79
2023/10/13 07:19:33;;;;;;;9.53;6.40;;;14.30;99.90;;;;;;5019566;28;20232;-79
2023/10/13 07:22:08;;;;;;;10.83;6.60;;;14.30;99.90;;;;;;5014570;28;20565;-78
2023/10/13 07:24:39;;;;;;;7.57;5.83;;;14.50;99.90;;;;;;5011742;28;20176;-79
2023/10/13 07:27:06;;;;;;;11.77;6.60;;;14.40;99.90;;;;;;5010895;28;20631;-78
2023/10/13 07:29:35;;;;;;;12.27;6.63;;;14.50;99.90;;;;;;5040389;28;20182;-77
2023/10/13 07:32:12;;;;;;;10.97;6.30;;;14.60;99.90;;;;;;5072449;28;20203;-78
2023/10/13 07:34:39;;;;;;;11.50;6.27;;;14.60;99.90;;;;;;5086180;28;20149;-77
2023/10/13 07:37:09;;;;;;;12.17;7.17;;;14.70;99.90;;;;;;5077585;28;20523;-78
2023/10/13 07:39:34;;;;;;;12.57;6.97;;;14.70;99.90;;;;;;5072738;28;20168;-79
2023/10/13 07:42:03;;;;;;;10.20;7.13;;;14.80;99.90;;;;;;5072382;28;20170;-77
2023/10/13 07:44:33;;;;;;;8.03;6.23;;;14.90;99.90;;;;;;5075101;28;20184;-78
2023/10/13 07:47:03;;;;;;;9.13;6.07;;;15.00;99.90;;;;;;5077090;28;20201;-78
2023/10/13 07:49:36;;;;;;;14.10;6.90;;;15.10;99.90;;;;;;5060434;28;20167;-78
2023/10/13 07:54:56;;;;;;;10.73;6.50;;;15.30;99.90;;;;;;5076265;28;20239;-79
2023/10/13 07:57:29;;;;;;;10.80;6.47;;;15.40;99.90;;;;;;5084339;28;20159;-78
2023/10/13 08:00:06;;;;;;;11.90;6.23;;;15.50;99.90;;;;;;5077770;28;20167;-78
2023/10/13 08:03:43;;;;;;;10.13;6.03;;;15.60;99.90;;;;;;5076729;28;20163;-77
2023/10/13 08:05:42;;;;;;;9.40;5.97;;;15.70;99.90;;;;;;5062131;28;20171;-77
2023/10/13 08:08:14;;;;;;;9.27;6.07;;;15.90;99.90;;;;;;5058831;28;20225;-78
2023/10/13 08:10:45;;;;;;;8.33;5.90;;;15.90;99.90;;;;;;5077233;28;20157;-80
2023/10/13 08:13:12;;;;;;;11.37;6.30;;;16.10;99.90;;;;;;5076072;28;20203;-78
2023/10/13 08:15:48;;;;;;;10.67;5.93;;;16.10;99.90;;;;;;5076173;28;20171;-78
2023/10/13 08:18:30;;;;;;;13.17;6.47;;;16.20;99.90;;;;;;5076866;28;20161;-77
2023/10/13 08:21:03;;;;;;;11.53;6.23;;;16.20;99.90;;;;;;5096988;28;20178;-77
2023/10/13 08:29:51;;;;;;;8.77;6.17;;;16.40;99.90;;;;;;5096995;28;20689;-77
2023/10/13 08:34:38;;;;;;;12.33;5.87;;;16.60;99.90;;;;;;5096509;28;20155;-78
2023/10/13 09:15:17;;;;;;;7.77;5.77;;;17.50;99.90;;;;;;5095571;28;20591;-77
2023/10/13 09:17:52;;;;;;;10.70;5.40;;;17.60;99.90;;;;;;5092174;28;20179;-76
2023/10/13 09:23:27;;;;;;;7.30;5.43;;;17.70;99.90;;;;;;5096528;28;20155;-76
2023/10/13 09:26:08;;;;;;;11.33;5.47;;;17.80;99.90;;;;;;5095425;28;20199;-78
2023/10/13 09:28:36;;;;;;;10.33;5.20;;;17.80;99.90;;;;;;5094716;28;20166;-76
2023/10/13 09:31:07;;;;;;;7.53;4.20;;;17.90;99.90;;;;;;5095555;28;20162;-76
2023/10/13 09:33:55;;;;;;;8.07;4.80;;;18.00;99.90;;;;;;5093909;28;20182;-77
2023/10/13 09:36:21;;;;;;;6.17;4.70;;;18.10;99.90;;;;;;5076677;28;20504;-77
2023/10/13 09:39:10;;;;;;;10.23;4.93;;;18.10;99.90;;;;;;5096717;28;20177;-79
2023/10/13 09:41:42;;;;;;;10.27;5.20;;;18.20;99.90;;;;;;5097305;28;20221;-76
2023/10/13 09:44:08;;;;;;;6.53;4.67;;;18.30;99.90;;;;;;5096312;28;20261;-78
2023/10/13 09:46:41;;;;;;;11.10;5.10;;;18.40;99.90;;;;;;5094748;28;20265;-77
2023/10/13 09:49:33;;;;;;;7.93;4.90;;;18.50;99.90;;;;;;5094514;28;20147;-77
2023/10/13 09:52:01;;;;;;;9.27;5.00;;;18.60;99.90;;;;;;5094595;28;20745;-77
2023/10/13 09:54:36;;;;;;;11.17;5.00;;;18.80;99.90;;;;;;5093715;28;20174;-78
2023/10/13 09:57:15;;;;;;;8.20;4.93;;;18.90;99.90;;;;;;5075820;28;20194;-78
2023/10/13 10:00:06;;;;;;;9.47;4.77;;;19.00;99.90;;;;;;5093587;28;20174;-77
2023/10/13 10:02:34;;;;;;;7.53;4.80;;;19.00;99.90;;;;;;5075786;28;20190;-75
2023/10/13 10:05:13;;;;;;;6.60;4.40;;;19.10;99.90;;;;;;5094041;28;20240;-77
2023/10/13 10:07:43;;;;;;;9.00;4.60;;;19.20;99.90;;;;;;5094069;28;20524;-78
2023/10/13 10:10:11;;;;;;;8.73;6.67;;;19.20;99.90;;;;;;5093631;28;20653;-79
2023/10/13 10:12:52;;;;;;;14.17;7.27;;;19.30;99.90;;;;;;5095337;28;20282;-78
2023/10/13 10:15:43;;;;;;;11.57;5.40;;;19.40;99.90;;;;;;5101914;28;20166;-77
2023/10/13 10:18:27;;;;;;;9.43;4.90;;;19.40;99.90;;;;;;5114105;28;20284;-78
2023/10/13 10:21:10;;;;;;;12.53;6.13;;;19.50;99.90;;;;;;5114105;28;20962;-78
2023/10/13 10:23:39;;;;;;;15.33;8.20;;;19.60;99.90;;;;;;5123321;28;20177;-76
2023/10/13 10:26:19;;;;;;;11.47;5.77;;;19.70;99.90;;;;;;5120820;28;20253;-79
2023/10/13 10:28:45;;;;;;;8.70;6.10;;;19.80;99.90;;;;;;5096224;28;20161;-78
2023/10/13 10:31:12;;;;;;;9.13;4.50;;;19.80;99.90;;;;;;5113589;28;20174;-77
2023/10/13 10:33:41;;;;;;;8.87;4.70;;;19.90;99.90;;;;;;5113100;28;20231;-77
2023/10/13 10:36:14;;;;;;;6.97;4.90;;;19.90;99.90;;;;;;5113666;28;20166;-77
2023/10/13 10:39:01;;;;;;;12.93;4.67;;;19.90;99.90;;;;;;5116336;28;20154;-78
2023/10/13 10:44:16;;;;;;;7.30;4.70;;;20.00;99.90;;;;;;5114379;28;20164;-78
2023/10/13 10:46:56;;;;;;;9.23;4.70;;;20.00;99.90;;;;;;5114098;28;20189;-78
2023/10/13 10:49:29;;;;;;;6.40;4.57;;;20.10;99.90;;;;;;5114015;28;20158;-77
2023/10/13 10:52:04;;;;;;;8.10;4.57;;;20.20;99.90;;;;;;5113799;28;20233;-78
2023/10/13 10:54:31;;;;;;;5.63;3.67;;;20.30;99.90;;;;;;5113091;28;20173;-78
2023/10/13 10:57:17;;;;;;;4.97;3.43;;;20.30;99.90;;;;;;5114648;28;20166;-77
2023/10/13 10:59:43;;;;;;;5.83;3.80;;;20.40;99.90;;;;;;5126760;28;20179;-79
2023/10/13 11:02:15;;;;;;;4.47;3.90;;;20.40;99.90;;;;;;5122505;28;20182;-78
2023/10/13 11:04:50;;;;;;;9.90;3.77;;;20.50;99.90;;;;;;5114602;28;20612;-78
2023/10/13 11:07:24;;;;;;;4.43;3.73;;;20.50;99.90;;;;;;5116633;28;20158;-78
2023/10/13 11:09:52;;;;;;;4.60;3.53;;;20.50;99.90;;;;;;5114980;28;20184;-75
2023/10/13 11:12:26;;;;;;;10.57;4.40;;;20.60;99.90;;;;;;5114418;28;20221;-77
2023/10/13 11:15:22;;;;;;;8.00;4.33;;;20.60;99.90;;;;;;5115225;28;20202;-78
2023/10/13 11:17:54;;;;;;;7.33;3.77;;;20.70;99.90;;;;;;5113883;28;20157;-78
2023/10/13 11:20:43;;;;;;;9.10;5.07;;;20.70;99.90;;;;;;5113264;28;20229;-79
2023/10/13 11:23:15;;;;;;;8.03;4.60;;;20.80;99.90;;;;;;5115136;28;20187;-77
2023/10/13 11:25:44;;;;;;;8.30;3.93;;;20.80;99.90;;;;;;5112653;28;20185;-78
2023/10/13 11:28:17;;;;;;;10.47;3.70;;;20.90;99.90;;;;;;5113962;28;20261;-78
2023/10/13 11:30:49;;;;;;;7.97;3.90;;;20.90;99.90;;;;;;5120050;28;20199;-77
2023/10/13 11:33:23;;;;;;;8.20;3.57;;;20.90;99.90;;;;;;5116668;28;20249;-78
2023/10/13 11:35:55;;;;;;;9.60;4.20;;;21.00;99.90;;;;;;5094679;28;20201;-77
2023/10/13 11:38:27;;;;;;;5.47;4.00;;;21.00;99.90;;;;;;5112765;28;20178;-77
2023/10/13 11:46:14;;;;;;;11.53;5.83;;;21.10;99.90;;;;;;5113254;28;20166;-77
2023/10/13 11:48:41;;;;;;;3.53;3.23;;;21.20;99.90;;;;;;5111914;28;20177;-77
2023/10/13 11:51:23;;;;;;;7.00;3.23;;;21.20;99.90;;;;;;5112608;28;20697;-77
2023/10/13 11:53:52;;;;;;;8.67;3.90;;;21.10;99.90;;;;;;5113417;28;20598;-77
2023/10/13 11:56:23;;;;;;;5.67;3.10;;;21.20;99.90;;;;;;5112955;28;20173;-79
2023/10/13 11:58:49;;;;;;;9.30;3.30;;;21.20;99.90;;;;;;5113712;28;20177;-80
2023/10/13 12:11:50;;;;;;;11.07;5.90;;;21.30;99.90;;;;;;5097312;28;20266;-78
2023/10/13 12:17:17;;;;;;;8.40;3.87;;;21.30;99.90;;;;;;5029253;28;20181;-76
2023/10/13 12:19:43;;;;;;;7.10;3.60;;;21.40;99.90;;;;;;5029979;28;20642;-78
2023/10/13 12:22:16;;;;;;;4.17;3.70;;;21.40;99.90;;;;;;5030195;28;20185;-78
2023/10/13 12:24:42;;;;;;;6.57;3.53;;;21.40;99.90;;;;;;5030531;28;20180;-77
2023/10/13 12:27:23;;;;;;;7.87;4.20;;;21.50;99.90;;;;;;5029454;28;20177;-78
2023/10/13 12:29:51;;;;;;;9.87;5.87;;;21.50;99.90;;;;;;5029470;28;20187;-78
2023/10/13 12:32:30;;;;;;;9.07;4.87;;;21.50;99.90;;;;;;5032047;28;20298;-78
2023/10/13 12:34:57;;;;;;;12.60;5.77;;;21.60;99.90;;;;;;5033422;28;20177;-79
2023/10/13 12:56:45;;;;;;;7.53;3.60;;;21.80;99.80;;;;;;5115472;28;20192;-77
2023/10/13 12:59:14;;;;;;;13.50;5.37;;;21.80;99.90;;;;;;5115302;28;20206;-78
2023/10/13 13:01:42;;;;;;;6.93;4.10;;;21.80;99.90;;;;;;5115322;28;20197;-78
2023/10/13 13:04:19;;;;;;;5.83;3.20;;;21.80;99.90;;;;;;5096711;28;20582;-77
2023/10/13 13:06:46;;;;;;;5.10;3.60;;;21.80;99.00;;;;;;5115011;28;20246;-78
2023/10/13 13:09:12;;;;;;;7.37;3.53;;;21.80;99.00;;;;;;5115175;28;20232;-78
2023/10/13 13:11:41;;;;;;;6.13;3.37;;;21.90;98.90;;;;;;5115482;28;20174;-76
2023/10/13 13:14:10;;;;;;;6.53;3.53;;;22.00;98.80;;;;;;5115901;28;20185;-78
2023/10/13 13:16:39;;;;;;;6.90;3.17;;;22.00;98.90;;;;;;5116200;28;20170;-78
2023/10/13 13:19:14;;;;;;;5.40;2.90;;;22.10;99.10;;;;;;5096472;28;20233;-77
2023/10/13 13:21:39;;;;;;;3.70;2.90;;;22.10;99.30;;;;;;5114886;28;20177;-81
2023/10/13 13:24:15;;;;;;;5.57;3.30;;;22.10;99.10;;;;;;5105518;28;20174;-79
2023/10/13 13:26:40;;;;;;;8.70;3.03;;;22.20;99.20;;;;;;5115137;28;20170;-77
2023/10/13 13:29:09;;;;;;;4.93;3.20;;;22.20;99.50;;;;;;5114004;28;20190;-76
2023/10/13 13:31:40;;;;;;;7.23;3.43;;;22.20;99.60;;;;;;5097428;28;20185;-77
2023/10/13 13:34:09;;;;;;;5.37;3.40;;;22.20;99.80;;;;;;5097326;28;20370;-77
2023/10/13 13:36:35;;;;;;;4.27;3.60;;;22.20;99.90;;;;;;5101409;28;20170;-78
2023/10/13 13:39:02;;;;;;;5.10;2.87;;;22.20;99.90;;;;;;5119628;28;20182;-79
2023/10/13 13:41:28;;;;;;;3.33;3.03;;;22.20;99.90;;;;;;5114787;28;20204;-78
2023/10/13 13:43:56;;;;;;;6.40;3.47;;;22.30;99.90;;;;;;5115193;28;20217;-80
2023/10/13 13:46:32;;;;;;;6.37;3.60;;;22.40;99.90;;;;;;5115156;28;20182;-80
2023/10/13 13:49:00;;;;;;;5.97;3.40;;;22.40;99.90;;;;;;5115510;28;20173;-77
2023/10/13 13:51:32;;;;;;;4.90;3.10;;;22.40;99.90;;;;;;5123902;28;20173;-80
2023/10/13 13:53:59;;;;;;;4.37;3.40;;;22.40;99.90;;;;;;5102548;28;20185;-78
2023/10/13 13:56:27;;;;;;;3.80;3.00;;;22.30;99.90;;;;;;5114935;28;20170;-78
2023/10/13 13:58:54;;;;;;;6.60;3.23;;;22.20;99.90;;;;;;5114712;28;20219;-79
2023/10/13 14:01:26;;;;;;;4.23;2.90;;;22.20;99.90;;;;;;5096398;28;20174;-78
2023/10/13 14:03:56;;;;;;;20.20;12.80;;;22.20;99.90;;;;;;5115353;28;20158;-78
2023/10/13 14:06:24;;;;;;;7.93;5.63;;;22.20;99.90;;;;;;5116327;28;20158;-78
2023/10/13 14:08:56;;;;;;;6.47;4.10;;;22.20;99.90;;;;;;5098320;28;20170;-79
2023/10/13 14:14:20;;;;;;;4.13;3.10;;;22.10;99.90;;;;;;5116995;28;20257;-78
2023/10/13 14:16:49;;;;;;;5.70;3.53;;;22.00;99.90;;;;;;5116112;28;20154;-78
2023/10/13 14:19:26;;;;;;;3.77;3.17;;;22.00;99.90;;;;;;5115942;28;20225;-78
2023/10/13 14:21:53;;;;;;;4.90;3.10;;;22.00;99.90;;;;;;5116642;28;20295;-79
2023/10/13 14:24:27;;;;;;;4.10;3.43;;;22.10;99.90;;;;;;5117905;28;20165;-79
2023/10/13 14:27:12;;;;;;;6.30;3.40;;;22.10;99.90;;;;;;5135968;28;20170;-79
2023/10/13 14:29:42;;;;;;;4.47;3.50;;;22.10;99.90;;;;;;5118714;28;20162;-79
2023/10/13 14:32:27;;;;;;;4.90;3.43;;;22.00;99.90;;;;;;5097637;28;20268;-79
2023/10/13 14:34:56;;;;;;;3.57;2.87;;;22.00;99.90;;;;;;5115620;28;20696;-79
2023/10/13 14:37:32;;;;;;;15.70;9.90;;;22.00;99.90;;;;;;5115488;28;20173;-78
2023/10/13 14:39:59;;;;;;;10.80;5.97;;;22.10;99.90;;;;;;5114999;28;20169;-78
2023/10/13 14:42:26;;;;;;;4.30;3.40;;;22.10;99.90;;;;;;5113790;28;20173;-79
2023/10/13 14:44:58;;;;;;;8.30;3.63;;;22.00;99.90;;;;;;5114151;28;20173;-79
2023/10/13 14:47:24;;;;;;;7.65;4.45;;;22.10;99.90;;;;;;5115017;28;20162;-79
2023/10/13 14:50:03;;;;;;;7.60;3.88;;;22.20;99.90;;;;;;5115097;28;20193;-78
2023/10/13 14:52:32;;;;;;;5.63;3.67;;;22.20;99.90;;;;;;5113924;28;20205;-78
2023/10/13 14:55:00;;;;;;;7.23;3.93;;;22.30;99.90;;;;;;5113524;28;20170;-77
2023/10/13 14:57:26;;;;;;;5.73;4.00;;;22.30;99.90;;;;;;5112974;28;20660;-79
2023/10/13 14:59:53;;;;;;;4.23;3.30;;;22.30;99.90;;;;;;5113569;28;20177;-78
2023/10/13 15:02:19;;;;;;;9.10;3.53;;;22.30;99.90;;;;;;5113606;28;20166;-79
2023/10/13 15:04:48;;;;;;;8.13;5.03;;;22.20;99.90;;;;;;5113641;28;20170;-77
2023/10/13 15:07:19;;;;;;;10.17;4.63;;;22.20;99.90;;;;;;5095765;28;20208;-78
2023/10/13 15:09:45;;;;;;;4.33;3.93;;;22.30;99.90;;;;;;5117172;28;20617;-78
2023/10/13 15:12:11;;;;;;;5.07;3.40;;;22.20;99.90;;;;;;5104950;28;20236;-78
2023/10/13 15:14:42;;;;;;;6.20;3.65;;;22.20;99.90;;;;;;5098147;28;20178;-78
2023/10/13 15:17:09;;;;;;;8.97;3.53;;;22.20;99.90;;;;;;5114125;28;20154;-78
2023/10/13 15:19:38;;;;;;;8.07;3.83;;;22.20;99.90;;;;;;5095490;28;20233;-80
2023/10/13 15:22:08;;;;;;;11.10;3.92;;;22.30;99.90;;;;;;5114195;28;20505;-79
2023/10/13 15:24:45;;;;;;;5.32;3.90;;;22.10;99.90;;;;;;5114018;28;20161;-79
2023/10/13 15:27:11;;;;;;;9.50;3.83;;;22.10;99.90;;;;;;5113763;28;20240;-79
2023/10/13 15:29:39;;;;;;;8.23;3.93;;;22.10;99.90;;;;;;5095037;28;20601;-79
2023/10/13 15:32:41;;;;;;;8.07;4.27;;;22.00;99.90;;;;;;5113124;28;20229;-79
2023/10/13 15:34:56;;;;;;;7.87;3.73;;;22.00;99.90;;;;;;5112793;28;20173;-80
2023/10/13 15:37:25;;;;;;;8.53;3.77;;;21.90;99.90;;;;;;5095821;28;20185;-78
2023/10/13 15:39:59;;;;;;;6.22;3.92;;;21.80;99.90;;;;;;5124330;28;20177;-78
2023/10/13 15:42:25;;;;;;;8.60;4.43;;;21.80;99.90;;;;;;5117067;28;20170;-78
2023/10/13 15:44:52;;;;;;;8.40;4.00;;;21.70;99.90;;;;;;5126076;28;20290;-79
2023/10/13 15:47:18;;;;;;;5.10;4.30;;;21.70;99.90;;;;;;5115075;28;20166;-78
2023/10/13 15:49:44;;;;;;;6.10;3.87;;;21.60;99.90;;;;;;5113604;28;20170;-79
2023/10/13 15:52:10;;;;;;;8.60;4.50;;;21.60;99.90;;;;;;5112793;28;20198;-78
2023/10/13 15:54:36;;;;;;;6.03;3.78;;;21.50;99.90;;;;;;5113372;28;20166;-79
2023/10/13 15:57:05;;;;;;;10.47;4.50;;;21.40;99.90;;;;;;5113400;28;20263;-78
2023/10/13 15:59:33;;;;;;;7.30;4.17;;;21.30;99.90;;;;;;5113232;28;20162;-77
2023/10/13 16:02:00;;;;;;;5.77;3.67;;;21.20;99.90;;;;;;5113540;28;20166;-78
2023/10/13 16:04:25;;;;;;;8.63;4.17;;;21.00;99.90;;;;;;5114239;28;20720;-79
2023/10/13 16:06:51;;;;;;;6.73;4.07;;;21.00;99.90;;;;;;5114667;28;20321;-78
2023/10/13 16:09:27;;;;;;;7.80;4.37;;;20.90;99.90;;;;;;5137440;28;20150;-78
2023/10/13 16:11:54;;;;;;;9.63;4.83;;;20.90;99.90;;;;;;5100884;28;20561;-78
2023/10/13 16:14:20;;;;;;;5.20;3.90;;;20.80;99.90;;;;;;5117604;28;20174;-79
2023/10/13 16:16:52;;;;;;;4.30;3.37;;;20.70;99.90;;;;;;5117431;28;20174;-78
2023/10/13 16:19:23;;;;;;;7.13;4.47;;;20.70;99.90;;;;;;5116718;28;20217;-79
2023/10/13 16:21:50;;;;;;;9.33;4.70;;;20.60;99.90;;;;;;5116651;28;20697;-76
2023/10/13 16:24:19;;;;;;;7.27;4.30;;;20.60;99.90;;;;;;5116908;28;20616;-78
2023/10/13 16:26:49;;;;;;;8.30;4.77;;;20.50;99.90;;;;;;5117474;28;20536;-77
2023/10/13 16:29:18;;;;;;;9.57;5.30;;;20.40;99.90;;;;;;5116745;28;20193;-77
2023/10/13 16:31:45;;;;;;;13.87;8.20;;;20.30;99.90;;;;;;5118382;28;20177;-77
2023/10/13 16:34:12;;;;;;;96.30;47.60;;;20.20;99.90;;;;;;5116102;28;20189;-77
2023/10/13 16:36:38;;;;;;;236.57;116.73;;;20.20;99.90;;;;;;5098123;28;20174;-78
2023/10/13 16:39:06;;;;;;;166.20;85.20;;;20.10;99.90;;;;;;5117427;28;20895;-76
2023/10/13 16:41:32;;;;;;;136.05;72.47;;;20.00;99.90;;;;;;5115977;28;20485;-79
2023/10/13 16:44:00;;;;;;;87.00;46.93;;;19.90;99.90;;;;;;5095702;28;20332;-77
2023/10/13 16:46:26;;;;;;;19.77;14.00;;;19.80;99.90;;;;;;5118192;28;20195;-80
2023/10/13 16:48:52;;;;;;;62.83;56.27;;;19.80;99.90;;;;;;5108830;28;20186;-78
2023/10/13 16:51:18;;;;;;;25.27;19.07;;;19.80;99.90;;;;;;5116560;28;20700;-78
2023/10/13 16:53:49;;;;;;;37.70;24.77;;;19.80;99.90;;;;;;5117550;28;20216;-78
2023/10/13 16:56:15;;;;;;;18.77;14.27;;;19.80;99.90;;;;;;5117757;28;20581;-78
2023/10/13 16:58:44;;;;;;;10.87;7.80;;;19.80;99.90;;;;;;5117885;28;20178;-79